sensor_id;sensor_type;location;lat;lon;timestamp;pressure;altitude;pressure_sealevel;temperature;humidity
20612;BME280;10465;42.686;23.364;2023-07-02T00:00:21;94359.47;;;21.61;85.05
20612;BME280;10465;42.686;23.364;2023-07-02T00:02:47;94362.16;;;21.65;85.03
20612;BME280;10465;42.686;23.364;2023-07-02T00:05:13;94361.00;;;21.62;85.46
20612;BME280;10465;42.686;23.364;2023-07-02T00:07:38;94370.22;;;21.72;85.44
20612;BME280;10465;42.686;23.364;2023-07-02T00:10:04;94374.09;;;21.67;85.74
20612;BME280;10465;42.686;23.364;2023-07-02T00:12:30;94363.69;;;21.59;86.47
20612;BME280;10465;42.686;23.364;2023-07-02T00:14:55;94351.78;;;21.53;86.72
20612;BME280;10465;42.686;23.364;2023-07-02T00:17:20;94353.31;;;21.57;86.44
20612;BME280;10465;42.686;23.364;2023-07-02T00:19:46;94361.78;;;21.48;87.06
20612;BME280;10465;42.686;23.364;2023-07-02T00:22:12;94355.66;;;21.41;87.53
20612;BME280;10465;42.686;23.364;2023-07-02T00:24:37;94356.41;;;21.41;87.64
20612;BME280;10465;42.686;23.364;2023-07-02T00:27:03;94349.09;;;21.38;87.96
20612;BME280;10465;42.686;23.364;2023-07-02T00:29:29;94342.56;;;21.29;87.92
20612;BME280;10465;42.686;23.364;2023-07-02T00:31:54;94358.72;;;21.39;88.06
20612;BME280;10465;42.686;23.364;2023-07-02T00:34:20;94357.16;;;21.38;88.24
20612;BME280;10465;42.686;23.364;2023-07-02T00:36:46;94361.44;;;21.36;87.71
20612;BME280;10465;42.686;23.364;2023-07-02T00:39:11;94356.81;;;21.40;87.48
20612;BME280;10465;42.686;23.364;2023-07-02T00:41:37;94374.50;;;21.37;88.38
20612;BME280;10465;42.686;23.364;2023-07-02T00:44:03;94377.94;;;21.45;87.73
20612;BME280;10465;42.686;23.364;2023-07-02T00:46:29;94385.63;;;21.46;87.23
20612;BME280;10465;42.686;23.364;2023-07-02T00:48:55;94381.78;;;21.51;86.54
20612;BME280;10465;42.686;23.364;2023-07-02T00:51:22;94384.50;;;21.44;85.61
20612;BME280;10465;42.686;23.364;2023-07-02T00:53:50;94386.78;;;21.38;85.90
20612;BME280;10465;42.686;23.364;2023-07-02T00:56:16;94383.72;;;21.40;85.82
20612;BME280;10465;42.686;23.364;2023-07-02T00:58:43;94384.50;;;21.44;85.23
20612;BME280;10465;42.686;23.364;2023-07-02T01:01:21;94382.16;;;21.39;84.65
20612;BME280;10465;42.686;23.364;2023-07-02T01:06:27;94369.47;;;21.46;85.15
20612;BME280;10465;42.686;23.364;2023-07-02T01:08:55;94374.84;;;21.43;85.76
20612;BME280;10465;42.686;23.364;2023-07-02T01:11:25;94360.25;;;21.40;85.62
20612;BME280;10465;42.686;23.364;2023-07-02T01:13:54;94375.63;;;21.47;84.26
20612;BME280;10465;42.686;23.364;2023-07-02T01:16:20;94374.09;;;21.50;83.78
20612;BME280;10465;42.686;23.364;2023-07-02T01:18:48;94380.25;;;21.50;83.34
20612;BME280;10465;42.686;23.364;2023-07-02T01:21:16;94384.47;;;21.51;83.26
20612;BME280;10465;42.686;23.364;2023-07-02T01:23:42;94381.78;;;21.55;82.76
20612;BME280;10465;42.686;23.364;2023-07-02T01:26:08;94381.78;;;21.55;83.43
20612;BME280;10465;42.686;23.364;2023-07-02T01:28:37;94360.25;;;21.40;83.87
20612;BME280;10465;42.686;23.364;2023-07-02T01:31:04;94378.72;;;21.53;83.96
20612;BME280;10465;42.686;23.364;2023-07-02T01:33:31;94379.13;;;21.47;84.23
20612;BME280;10465;42.686;23.364;2023-07-02T01:35:56;94349.88;;;21.35;84.38
20612;BME280;10465;42.686;23.364;2023-07-02T01:38:22;94334.09;;;21.37;84.56
20612;BME280;10465;42.686;23.364;2023-07-02T01:40:47;94349.88;;;21.50;84.40
20612;BME280;10465;42.686;23.364;2023-07-02T01:43:13;94361.03;;;21.44;84.47
20612;BME280;10465;42.686;23.364;2023-07-02T01:45:38;94357.94;;;21.42;84.55
20612;BME280;10465;42.686;23.364;2023-07-02T01:48:04;94348.69;;;21.47;84.39
20612;BME280;10465;42.686;23.364;2023-07-02T01:50:29;94338.31;;;21.38;84.37
20612;BME280;10465;42.686;23.364;2023-07-02T01:52:55;94349.88;;;21.46;84.88
20612;BME280;10465;42.686;23.364;2023-07-02T01:55:20;94351.03;;;21.34;85.38
20612;BME280;10465;42.686;23.364;2023-07-02T01:57:46;94339.88;;;21.36;86.91
20612;BME280;10465;42.686;23.364;2023-07-02T02:00:11;94346.03;;;21.36;87.59
20612;BME280;10465;42.686;23.364;2023-07-02T02:02:37;94339.88;;;21.32;87.78
20612;BME280;10465;42.686;23.364;2023-07-02T02:05:03;94327.94;;;21.26;86.98
20612;BME280;10465;42.686;23.364;2023-07-02T02:07:28;94338.69;;;21.26;87.21
20612;BME280;10465;42.686;23.364;2023-07-02T02:09:54;94331.78;;;21.14;87.55
20612;BME280;10465;42.686;23.364;2023-07-02T02:12:19;94314.09;;;21.13;88.62
20612;BME280;10465;42.686;23.364;2023-07-02T02:14:45;94326.78;;;21.06;88.25
20612;BME280;10465;42.686;23.364;2023-07-02T02:17:10;94337.16;;;21.00;89.07
20612;BME280;10465;42.686;23.364;2023-07-02T02:19:36;94322.16;;;20.92;89.55
20612;BME280;10465;42.686;23.364;2023-07-02T02:22:01;94330.25;;;20.92;89.13
20612;BME280;10465;42.686;23.364;2023-07-02T02:24:26;94352.16;;;20.97;89.23
20612;BME280;10465;42.686;23.364;2023-07-02T02:26:52;94318.31;;;20.86;90.12
20612;BME280;10465;42.686;23.364;2023-07-02T02:29:17;94329.50;;;20.95;89.63
20612;BME280;10465;42.686;23.364;2023-07-02T02:31:43;94306.78;;;20.82;88.07
20612;BME280;10465;42.686;23.364;2023-07-02T02:34:09;94323.34;;;20.91;88.16
20612;BME280;10465;42.686;23.364;2023-07-02T02:36:34;94320.63;;;20.80;89.82
20612;BME280;10465;42.686;23.364;2023-07-02T02:39:00;94328.69;;;20.77;89.21
20612;BME280;10465;42.686;23.364;2023-07-02T02:41:26;94318.69;;;20.59;88.37
20612;BME280;10465;42.686;23.364;2023-07-02T02:43:52;94312.47;;;20.41;90.39
20612;BME280;10465;42.686;23.364;2023-07-02T02:46:21;94331.63;;;20.32;90.46
20612;BME280;10465;42.686;23.364;2023-07-02T02:48:50;94307.81;;;20.27;91.34
20612;BME280;10465;42.686;23.364;2023-07-02T02:51:16;94293.22;;;20.14;93.48
20612;BME280;10465;42.686;23.364;2023-07-02T02:53:42;94305.09;;;20.20;92.49
20612;BME280;10465;42.686;23.364;2023-07-02T02:56:07;94320.88;;;20.32;92.31
20612;BME280;10465;42.686;23.364;2023-07-02T02:58:33;94327.81;;;20.37;93.20
20612;BME280;10465;42.686;23.364;2023-07-02T03:00:58;94334.72;;;20.41;92.78
20612;BME280;10465;42.686;23.364;2023-07-02T03:03:24;94327.81;;;20.44;93.10
20612;BME280;10465;42.686;23.364;2023-07-02T03:05:50;94323.63;;;20.46;93.45
20612;BME280;10465;42.686;23.364;2023-07-02T03:08:15;94323.28;;;20.52;94.37
20612;BME280;10465;42.686;23.364;2023-07-02T03:10:41;94337.88;;;20.61;94.33
20612;BME280;10465;42.686;23.364;2023-07-02T03:13:06;94287.09;;;20.31;95.61
20612;BME280;10465;42.686;23.364;2023-07-02T03:15:32;94298.28;;;20.47;94.66
20612;BME280;10465;42.686;23.364;2023-07-02T03:17:57;94321.00;;;20.68;95.36
20612;BME280;10465;42.686;23.364;2023-07-02T03:20:24;94306.78;;;20.64;95.76
20612;BME280;10465;42.686;23.364;2023-07-02T03:22:49;94303.31;;;20.67;95.81
20612;BME280;10465;42.686;23.364;2023-07-02T03:25:15;94311.78;;;20.76;95.00
20612;BME280;10465;42.686;23.364;2023-07-02T03:27:41;94310.22;;;20.64;92.74
20612;BME280;10465;42.686;23.364;2023-07-02T03:30:07;94342.53;;;20.75;92.08
20612;BME280;10465;42.686;23.364;2023-07-02T03:32:32;94346.00;;;20.83;91.83
20612;BME280;10465;42.686;23.364;2023-07-02T03:34:58;94351.38;;;20.90;93.02
20612;BME280;10465;42.686;23.364;2023-07-02T03:37:23;94347.91;;;20.86;92.89
20612;BME280;10465;42.686;23.364;2023-07-02T03:39:49;94345.59;;;20.84;92.52
20612;BME280;10465;42.686;23.364;2023-07-02T03:42:15;94343.69;;;20.81;92.66
20612;BME280;10465;42.686;23.364;2023-07-02T03:44:41;94336.38;;;20.74;92.80
20612;BME280;10465;42.686;23.364;2023-07-02T03:47:06;94346.00;;;20.79;92.90
20612;BME280;10465;42.686;23.364;2023-07-02T03:49:33;94351.75;;;20.88;92.78
20612;BME280;10465;42.686;23.364;2023-07-02T03:51:59;94327.94;;;20.83;93.50
20612;BME280;10465;42.686;23.364;2023-07-02T03:54:24;94282.19;;;20.51;93.81
20612;BME280;10465;42.686;23.364;2023-07-02T03:56:50;94333.31;;;20.87;94.09
20612;BME280;10465;42.686;23.364;2023-07-02T03:59:15;94348.69;;;20.93;94.56
20612;BME280;10465;42.686;23.364;2023-07-02T04:01:41;94338.31;;;20.88;93.89
20612;BME280;10465;42.686;23.364;2023-07-02T04:04:06;94346.38;;;20.85;93.93
20612;BME280;10465;42.686;23.364;2023-07-02T04:06:32;94346.38;;;20.88;93.91
20612;BME280;10465;42.686;23.364;2023-07-02T04:08:59;94332.53;;;20.90;94.36
20612;BME280;10465;42.686;23.364;2023-07-02T04:11:24;94343.69;;;20.92;94.58
20612;BME280;10465;42.686;23.364;2023-07-02T04:13:50;94336.00;;;20.83;95.09
20612;BME280;10465;42.686;23.364;2023-07-02T04:16:15;94346.38;;;20.85;94.85
20612;BME280;10465;42.686;23.364;2023-07-02T04:18:41;94348.69;;;20.93;93.32
20612;BME280;10465;42.686;23.364;2023-07-02T04:21:06;94354.84;;;20.83;93.24
20612;BME280;10465;42.686;23.364;2023-07-02T04:23:32;94382.53;;;20.91;94.29
20612;BME280;10465;42.686;23.364;2023-07-02T04:25:57;94378.66;;;20.92;94.59
20612;BME280;10465;42.686;23.364;2023-07-02T04:28:23;94383.66;;;20.90;94.72
20612;BME280;10465;42.686;23.364;2023-07-02T04:30:48;94380.59;;;20.91;94.44
20612;BME280;10465;42.686;23.364;2023-07-02T04:33:15;94385.19;;;20.87;94.31
20612;BME280;10465;42.686;23.364;2023-07-02T04:35:41;94378.28;;;20.79;94.80
20612;BME280;10465;42.686;23.364;2023-07-02T04:38:06;94380.97;;;20.79;95.20
20612;BME280;10465;42.686;23.364;2023-07-02T04:40:32;94370.94;;;20.58;95.19
20612;BME280;10465;42.686;23.364;2023-07-02T04:42:58;94390.09;;;20.57;95.45
20612;BME280;10465;42.686;23.364;2023-07-02T04:45:24;94398.59;;;20.62;96.71
20612;BME280;10465;42.686;23.364;2023-07-02T04:47:50;94390.50;;;20.55;96.32
20612;BME280;10465;42.686;23.364;2023-07-02T04:50:17;94406.28;;;20.71;95.73
20612;BME280;10465;42.686;23.364;2023-07-02T04:52:42;94393.56;;;20.57;95.38
20612;BME280;10465;42.686;23.364;2023-07-02T04:55:08;94409.00;;;20.71;95.61
20612;BME280;10465;42.686;23.364;2023-07-02T04:57:33;94403.97;;;20.69;95.57
20612;BME280;10465;42.686;23.364;2023-07-02T04:59:59;94375.84;;;20.42;95.82
20612;BME280;10465;42.686;23.364;2023-07-02T05:02:24;94415.91;;;20.72;95.49
20612;BME280;10465;42.686;23.364;2023-07-02T05:04:50;94420.88;;;20.73;94.36
20612;BME280;10465;42.686;23.364;2023-07-02T05:07:16;94416.31;;;20.85;94.03
20612;BME280;10465;42.686;23.364;2023-07-02T05:09:41;94402.81;;;20.74;94.89
20612;BME280;10465;42.686;23.364;2023-07-02T05:12:07;94422.84;;;20.84;95.05
20612;BME280;10465;42.686;23.364;2023-07-02T05:14:33;94428.25;;;20.91;95.08
20612;BME280;10465;42.686;23.364;2023-07-02T05:16:58;94409.03;;;20.92;95.03
20612;BME280;10465;42.686;23.364;2023-07-02T05:19:24;94418.63;;;20.93;93.70
20612;BME280;10465;42.686;23.364;2023-07-02T05:21:49;94425.56;;;21.02;92.91
20612;BME280;10465;42.686;23.364;2023-07-02T05:24:15;94431.72;;;21.06;92.86
20612;BME280;10465;42.686;23.364;2023-07-02T05:26:40;94427.09;;;20.95;92.89
20612;BME280;10465;42.686;23.364;2023-07-02T05:29:07;94430.97;;;21.05;92.52
20612;BME280;10465;42.686;23.364;2023-07-02T05:31:32;94410.97;;;20.95;91.60
20612;BME280;10465;42.686;23.364;2023-07-02T05:33:59;94412.50;;;21.04;91.59
20612;BME280;10465;42.686;23.364;2023-07-02T05:36:25;94407.50;;;21.02;92.18
20612;BME280;10465;42.686;23.364;2023-07-02T05:38:50;94418.66;;;21.08;92.62
20612;BME280;10465;42.686;23.364;2023-07-02T05:41:22;94417.91;;;21.11;92.83
20612;BME280;10465;42.686;23.364;2023-07-02T05:43:48;94427.13;;;21.10;93.16
20612;BME280;10465;42.686;23.364;2023-07-02T05:46:14;94414.44;;;21.07;92.77
20612;BME280;10465;42.686;23.364;2023-07-02T05:48:41;94438.28;;;21.22;91.94
20612;BME280;10465;42.686;23.364;2023-07-02T05:51:07;94425.59;;;21.09;91.27
20612;BME280;10465;42.686;23.364;2023-07-02T05:53:32;94426.38;;;21.16;91.30
20612;BME280;10465;42.686;23.364;2023-07-02T05:55:58;94429.84;;;21.28;90.04
20612;BME280;10465;42.686;23.364;2023-07-02T05:58:23;94434.13;;;21.36;87.68
20612;BME280;10465;42.686;23.364;2023-07-02T06:00:49;94439.88;;;21.34;85.93
20612;BME280;10465;42.686;23.364;2023-07-02T06:03:18;94423.34;;;21.32;86.76
20612;BME280;10465;42.686;23.364;2023-07-02T06:05:50;94416.78;;;21.37;85.76
20612;BME280;10465;42.686;23.364;2023-07-02T06:08:16;94417.56;;;21.41;85.30
20612;BME280;10465;42.686;23.364;2023-07-02T06:10:43;94431.00;;;21.55;85.31
20612;BME280;10465;42.686;23.364;2023-07-02T06:13:08;94414.09;;;21.58;85.31
20612;BME280;10465;42.686;23.364;2023-07-02T06:15:34;94427.56;;;21.76;83.98
20612;BME280;10465;42.686;23.364;2023-07-02T06:17:59;94421.00;;;21.81;82.49
20612;BME280;10465;42.686;23.364;2023-07-02T06:20:25;94406.00;;;21.76;82.05
20612;BME280;10465;42.686;23.364;2023-07-02T06:22:50;94415.59;;;21.95;83.05
20612;BME280;10465;42.686;23.364;2023-07-02T06:25:16;94416.75;;;21.97;83.35
20612;BME280;10465;42.686;23.364;2023-07-02T06:27:41;94405.97;;;21.97;83.39
20612;BME280;10465;42.686;23.364;2023-07-02T06:30:07;94410.59;;;22.01;83.67
20612;BME280;10465;42.686;23.364;2023-07-02T06:32:32;94391.34;;;21.95;82.78
20612;BME280;10465;42.686;23.364;2023-07-02T06:34:58;94408.25;;;22.10;83.20
20612;BME280;10465;42.686;23.364;2023-07-02T06:37:23;94361.75;;;21.84;83.46
20612;BME280;10465;42.686;23.364;2023-07-02T06:39:49;94414.44;;;22.14;82.25
20612;BME280;10465;42.686;23.364;2023-07-02T06:42:14;94417.88;;;22.18;81.79
20612;BME280;10465;42.686;23.364;2023-07-02T06:44:41;94412.47;;;22.21;80.92
20612;BME280;10465;42.686;23.364;2023-07-02T06:47:06;94418.22;;;22.27;80.18
20612;BME280;10465;42.686;23.364;2023-07-02T06:49:31;94370.94;;;22.01;81.09
20612;BME280;10465;42.686;23.364;2023-07-02T06:51:57;94421.69;;;22.28;79.47
20612;BME280;10465;42.686;23.364;2023-07-02T06:54:22;94407.44;;;22.31;81.49
20612;BME280;10465;42.686;23.364;2023-07-02T06:56:48;94396.28;;;22.29;81.85
20612;BME280;10465;42.686;23.364;2023-07-02T06:59:20;94414.31;;;22.42;81.12
20612;BME280;10465;42.686;23.364;2023-07-02T07:01:46;94409.28;;;22.52;81.57
20612;BME280;10465;42.686;23.364;2023-07-02T07:04:11;94413.09;;;22.61;82.70
20612;BME280;10465;42.686;23.364;2023-07-02T07:06:37;94420.78;;;22.66;80.55
20612;BME280;10465;42.686;23.364;2023-07-02T07:09:03;94427.69;;;22.71;80.66
20612;BME280;10465;42.686;23.364;2023-07-02T07:11:29;94411.09;;;22.76;80.90
20612;BME280;10465;42.686;23.364;2023-07-02T07:13:54;94408.38;;;22.80;80.65
20612;BME280;10465;42.686;23.364;2023-07-02T07:16:20;94409.91;;;22.81;79.51
20612;BME280;10465;42.686;23.364;2023-07-02T07:18:45;94409.88;;;22.88;79.16
20612;BME280;10465;42.686;23.364;2023-07-02T07:21:11;94408.34;;;22.90;78.17
20612;BME280;10465;42.686;23.364;2023-07-02T07:23:36;94398.69;;;22.89;78.15
20612;BME280;10465;42.686;23.364;2023-07-02T07:26:02;94413.72;;;22.94;77.38
20612;BME280;10465;42.686;23.364;2023-07-02T07:28:28;94418.34;;;22.90;77.93
20612;BME280;10465;42.686;23.364;2023-07-02T07:30:53;94401.44;;;22.82;77.50
20612;BME280;10465;42.686;23.364;2023-07-02T07:33:18;94411.44;;;22.89;78.04
20612;BME280;10465;42.686;23.364;2023-07-02T07:35:44;94412.97;;;22.90;76.77
20612;BME280;10465;42.686;23.364;2023-07-02T07:38:09;94407.19;;;22.81;76.39
20612;BME280;10465;42.686;23.364;2023-07-02T07:40:35;94400.28;;;22.80;76.79
20612;BME280;10465;42.686;23.364;2023-07-02T07:43:00;94379.16;;;22.64;76.54
20612;BME280;10465;42.686;23.364;2023-07-02T07:45:26;94391.41;;;22.79;77.32
20612;BME280;10465;42.686;23.364;2023-07-02T07:47:52;94403.34;;;22.85;77.87
20612;BME280;10465;42.686;23.364;2023-07-02T07:50:17;94411.78;;;22.98;78.39
20612;BME280;10465;42.686;23.364;2023-07-02T07:52:42;94412.91;;;23.01;78.92
20612;BME280;10465;42.686;23.364;2023-07-02T07:55:08;94409.06;;;23.02;78.91
20612;BME280;10465;42.686;23.364;2023-07-02T07:57:36;94410.59;;;23.03;78.65
20612;BME280;10465;42.686;23.364;2023-07-02T08:00:03;94392.91;;;22.94;77.40
20612;BME280;10465;42.686;23.364;2023-07-02T08:02:38;94411.34;;;23.07;76.44
20612;BME280;10465;42.686;23.364;2023-07-02T08:05:04;94418.22;;;23.15;77.58
20612;BME280;10465;42.686;23.364;2023-07-02T08:07:31;94423.97;;;23.17;76.55
20612;BME280;10465;42.686;23.364;2023-07-02T08:09:57;94412.03;;;23.22;76.97
20612;BME280;10465;42.686;23.364;2023-07-02T08:12:22;94420.34;;;23.41;77.50
20612;BME280;10465;42.686;23.364;2023-07-02T08:14:49;94409.94;;;23.40;75.03
20612;BME280;10465;42.686;23.364;2023-07-02T08:17:14;94414.44;;;23.57;75.65
20612;BME280;10465;42.686;23.364;2023-07-02T08:19:40;94417.06;;;23.68;76.63
20612;BME280;10465;42.686;23.364;2023-07-02T08:22:05;94418.88;;;23.82;75.60
20612;BME280;10465;42.686;23.364;2023-07-02T08:24:31;94396.59;;;23.71;71.40
20612;BME280;10465;42.686;23.364;2023-07-02T08:26:58;94410.84;;;23.75;71.00
20612;BME280;10465;42.686;23.364;2023-07-02T08:29:23;94403.81;;;23.84;71.74
20612;BME280;10465;42.686;23.364;2023-07-02T08:31:49;94396.88;;;23.83;71.86
20612;BME280;10465;42.686;23.364;2023-07-02T08:34:14;94406.78;;;23.93;71.99
20612;BME280;10465;42.686;23.364;2023-07-02T08:36:39;94402.13;;;23.98;71.28
20612;BME280;10465;42.686;23.364;2023-07-02T08:39:05;94406.31;;;24.02;71.64
20612;BME280;10465;42.686;23.364;2023-07-02T08:41:41;94413.56;;;24.12;72.81
20612;BME280;10465;42.686;23.364;2023-07-02T08:44:08;94410.78;;;24.20;72.56
20612;BME280;10465;42.686;23.364;2023-07-02T08:46:34;94413.88;;;24.18;70.33
20612;BME280;10465;42.686;23.364;2023-07-02T08:49:00;94400.03;;;24.12;70.75
20612;BME280;10465;42.686;23.364;2023-07-02T08:51:25;94388.91;;;24.07;70.90
20612;BME280;10465;42.686;23.364;2023-07-02T08:53:51;94397.31;;;24.16;70.79
20612;BME280;10465;42.686;23.364;2023-07-02T08:56:16;94418.41;;;24.28;70.87
20612;BME280;10465;42.686;23.364;2023-07-02T08:58:42;94412.97;;;24.32;71.21
20612;BME280;10465;42.686;23.364;2023-07-02T09:01:12;94407.53;;;24.35;70.53
20612;BME280;10465;42.686;23.364;2023-07-02T09:03:38;94385.19;;;24.28;70.80
20612;BME280;10465;42.686;23.364;2023-07-02T09:06:08;94387.03;;;24.34;70.44
20612;BME280;10465;42.686;23.364;2023-07-02T09:08:34;94405.81;;;24.52;68.72
20612;BME280;10465;42.686;23.364;2023-07-02T09:11:09;94403.75;;;24.63;71.00
20612;BME280;10465;42.686;23.364;2023-07-02T09:13:59;94391.78;;;24.61;71.34
20612;BME280;10465;42.686;23.364;2023-07-02T09:16:28;94405.13;;;24.75;70.19
20612;BME280;10465;42.686;23.364;2023-07-02T09:19:03;94398.03;;;24.85;67.20
20612;BME280;10465;42.686;23.364;2023-07-02T09:21:46;94404.22;;;24.85;62.71
20612;BME280;10465;42.686;23.364;2023-07-02T09:24:15;94403.09;;;24.83;62.66
20612;BME280;10465;42.686;23.364;2023-07-02T09:26:49;94359.78;;;24.56;63.20
20612;BME280;10465;42.686;23.364;2023-07-02T09:31:51;94395.28;;;24.88;65.65
20612;BME280;10465;42.686;23.364;2023-07-02T09:34:17;94395.19;;;24.96;66.83
20612;BME280;10465;42.686;23.364;2023-07-02T09:36:43;94378.16;;;24.95;68.21
20612;BME280;10465;42.686;23.364;2023-07-02T09:39:14;94371.94;;;24.98;69.16
20612;BME280;10465;42.686;23.364;2023-07-02T09:41:41;94384.47;;;25.15;69.12
20612;BME280;10465;42.686;23.364;2023-07-02T09:44:08;94386.72;;;25.21;67.91
20612;BME280;10465;42.686;23.364;2023-07-02T09:46:37;94391.25;;;25.27;67.24
20612;BME280;10465;42.686;23.364;2023-07-02T09:49:05;94390.34;;;25.37;67.23
20612;BME280;10465;42.686;23.364;2023-07-02T09:51:31;94387.16;;;25.43;66.41
20612;BME280;10465;42.686;23.364;2023-07-02T09:53:57;94384.22;;;25.33;64.72
20612;BME280;10465;42.686;23.364;2023-07-02T09:56:23;94382.69;;;25.32;64.96
20612;BME280;10465;42.686;23.364;2023-07-02T09:58:49;94384.56;;;25.35;64.72
20612;BME280;10465;42.686;23.364;2023-07-02T10:01:14;94386.03;;;25.40;64.91
20612;BME280;10465;42.686;23.364;2023-07-02T10:03:40;94342.31;;;25.14;62.85
20612;BME280;10465;42.686;23.364;2023-07-02T10:06:06;94390.53;;;25.50;62.27
20612;BME280;10465;42.686;23.364;2023-07-02T10:08:32;94378.81;;;25.57;61.95
20612;BME280;10465;42.686;23.364;2023-07-02T10:11:11;94365.00;;;25.48;61.80
20612;BME280;10465;42.686;23.364;2023-07-02T10:13:37;94373.78;;;25.55;61.40
20612;BME280;10465;42.686;23.364;2023-07-02T10:16:06;94374.50;;;25.59;63.61
20612;BME280;10465;42.686;23.364;2023-07-02T10:18:32;94356.88;;;25.48;63.44
20612;BME280;10465;42.686;23.364;2023-07-02T10:20:58;94361.69;;;25.60;63.89
20612;BME280;10465;42.686;23.364;2023-07-02T10:23:35;94362.00;;;25.65;62.99
20612;BME280;10465;42.686;23.364;2023-07-02T10:26:17;94336.91;;;25.61;63.14
20612;BME280;10465;42.686;23.364;2023-07-02T10:28:43;94323.63;;;25.67;64.21
20612;BME280;10465;42.686;23.364;2023-07-02T10:31:20;94338.66;;;25.95;64.32
20612;BME280;10465;42.686;23.364;2023-07-02T10:33:47;94337.00;;;26.01;63.22
20612;BME280;10465;42.686;23.364;2023-07-02T10:38:45;94340.03;;;26.23;62.19
20612;BME280;10465;42.686;23.364;2023-07-02T10:41:12;94348.25;;;26.39;61.64
20612;BME280;10465;42.686;23.364;2023-07-02T10:43:47;94350.00;;;26.50;62.06
20612;BME280;10465;42.686;23.364;2023-07-02T10:46:18;94331.72;;;26.54;62.30
20612;BME280;10465;42.686;23.364;2023-07-02T10:48:54;94339.31;;;26.79;60.21
20612;BME280;10465;42.686;23.364;2023-07-02T10:51:20;94329.13;;;26.83;57.43
20612;BME280;10465;42.686;23.364;2023-07-02T10:53:56;94329.47;;;26.85;55.54
20612;BME280;10465;42.686;23.364;2023-07-02T10:56:22;94336.09;;;27.00;56.06
20612;BME280;10465;42.686;23.364;2023-07-02T10:58:47;94335.03;;;27.14;56.58
20612;BME280;10465;42.686;23.364;2023-07-02T11:01:28;94313.72;;;27.13;54.81
20612;BME280;10465;42.686;23.364;2023-07-02T11:04:01;94331.38;;;27.37;54.81
20612;BME280;10465;42.686;23.364;2023-07-02T11:06:28;94324.16;;;27.47;53.48
20612;BME280;10465;42.686;23.364;2023-07-02T11:08:54;94320.06;;;27.55;52.71
20612;BME280;10465;42.686;23.364;2023-07-02T11:11:21;94332.28;;;27.63;52.08
20612;BME280;10465;42.686;23.364;2023-07-02T11:13:47;94318.44;;;27.74;52.48
20612;BME280;10465;42.686;23.364;2023-07-02T11:16:22;94320.34;;;27.90;53.63
20612;BME280;10465;42.686;23.364;2023-07-02T11:18:54;94314.63;;;28.00;52.76
20612;BME280;10465;42.686;23.364;2023-07-02T11:21:20;94319.75;;;28.11;51.92
20612;BME280;10465;42.686;23.364;2023-07-02T11:23:45;94285.66;;;27.94;48.78
20612;BME280;10465;42.686;23.364;2023-07-02T11:26:11;94325.56;;;28.26;47.31
20612;BME280;10465;42.686;23.364;2023-07-02T11:28:48;94336.69;;;28.31;45.86
20612;BME280;10465;42.686;23.364;2023-07-02T11:31:24;94290.50;;;28.15;45.43
20612;BME280;10465;42.686;23.364;2023-07-02T11:33:49;94328.69;;;28.41;45.44
20612;BME280;10465;42.686;23.364;2023-07-02T11:36:21;94296.50;;;28.23;44.70
20612;BME280;10465;42.686;23.364;2023-07-02T11:38:46;94327.16;;;28.40;47.65
20612;BME280;10465;42.686;23.364;2023-07-02T11:41:12;94321.06;;;28.06;50.64
20612;BME280;10465;42.686;23.364;2023-07-02T11:43:38;94333.19;;;27.73;53.13
20612;BME280;10465;42.686;23.364;2023-07-02T11:46:03;94329.59;;;27.30;54.29
20612;BME280;10465;42.686;23.364;2023-07-02T11:48:29;94329.31;;;26.92;55.42
20612;BME280;10465;42.686;23.364;2023-07-02T11:50:54;94329.28;;;26.76;56.65
20612;BME280;10465;42.686;23.364;2023-07-02T11:53:20;94302.88;;;26.60;58.05
20612;BME280;10465;42.686;23.364;2023-07-02T11:55:45;94327.97;;;26.64;57.81
20612;BME280;10465;42.686;23.364;2023-07-02T11:58:10;94314.50;;;26.60;58.04
20612;BME280;10465;42.686;23.364;2023-07-02T12:00:36;94303.94;;;26.46;58.16
20612;BME280;10465;42.686;23.364;2023-07-02T12:03:01;94319.84;;;26.64;58.00
20612;BME280;10465;42.686;23.364;2023-07-02T12:05:27;94315.09;;;26.68;56.16
20612;BME280;10465;42.686;23.364;2023-07-02T12:07:52;94319.88;;;26.80;55.97
20612;BME280;10465;42.686;23.364;2023-07-02T12:10:18;94325.66;;;26.99;54.63
20612;BME280;10465;42.686;23.364;2023-07-02T12:12:43;94333.97;;;27.08;49.66
20612;BME280;10465;42.686;23.364;2023-07-02T12:15:09;94349.22;;;27.22;48.51
20612;BME280;10465;42.686;23.364;2023-07-02T12:17:35;94319.63;;;26.91;47.76
20612;BME280;10465;42.686;23.364;2023-07-02T12:20:00;94355.88;;;27.01;47.91
20612;BME280;10465;42.686;23.364;2023-07-02T12:22:25;94357.66;;;26.91;47.73
20612;BME280;10465;42.686;23.364;2023-07-02T12:24:52;94349.56;;;26.71;49.07
20612;BME280;10465;42.686;23.364;2023-07-02T12:27:21;94347.47;;;26.39;50.93
20612;BME280;10465;42.686;23.364;2023-07-02T12:29:46;94365.09;;;26.31;54.97
20612;BME280;10465;42.686;23.364;2023-07-02T12:32:15;94363.75;;;26.19;58.50
20612;BME280;10465;42.686;23.364;2023-07-02T12:34:41;94356.44;;;26.16;60.28
20612;BME280;10465;42.686;23.364;2023-07-02T12:37:06;94347.63;;;26.12;61.28
20612;BME280;10465;42.686;23.364;2023-07-02T12:39:32;94359.94;;;26.17;62.65
20612;BME280;10465;42.686;23.364;2023-07-02T12:41:58;94353.75;;;26.16;64.92
20612;BME280;10465;42.686;23.364;2023-07-02T12:44:23;94361.13;;;26.16;64.06
20612;BME280;10465;42.686;23.364;2023-07-02T12:46:49;94341.94;;;26.06;65.88
20612;BME280;10465;42.686;23.364;2023-07-02T12:49:15;94337.59;;;26.09;65.90
20612;BME280;10465;42.686;23.364;2023-07-02T12:51:40;94354.59;;;26.13;66.81
20612;BME280;10465;42.686;23.364;2023-07-02T12:54:05;94348.81;;;26.11;65.86